Time;durP1;ratioP1;P1;durP2;ratioP2;P2;SDS_P1;SDS_P2;PMS_P1;PMS_P2;Temp;Humidity;BMP_temperature;BMP_pressure;BME280_temperature;BME280_humidity;BME280_pressure;Samples;Min_cycle;Max_cycle;Signal;HPM_P1;HPM_P2
2023/10/17 00:03:31;;;;;;;11.68;4.78;;;;;;;7.98;100.00;102115.81;10578100;28;20031;-71
2023/10/17 00:08:33;;;;;;;5.75;4.80;;;;;;;7.95;100.00;102108.88;10580035;28;20104;-71
2023/10/17 00:13:44;;;;;;;9.88;4.60;;;;;;;7.96;100.00;102107.88;10578813;28;20031;-70
2023/10/17 00:18:45;;;;;;;8.23;6.03;;;;;;;7.88;100.00;102099.66;10578657;28;20119;-72
2023/10/17 00:23:45;;;;;;;8.50;4.35;;;;;;;7.93;100.00;102095.53;10578521;28;20032;-71
2023/10/17 00:28:48;;;;;;;15.20;5.10;;;;;;;7.94;100.00;102093.66;10561628;28;20412;-71
2023/10/17 00:33:58;;;;;;;8.27;5.97;;;;;;;7.91;100.00;102086.75;10544784;28;20024;-72
2023/10/17 00:39:11;;;;;;;6.60;4.65;;;;;;;7.89;100.00;102087.91;10578324;28;20052;-72
2023/10/17 00:44:14;;;;;;;8.20;4.15;;;;;;;7.84;100.00;102076.69;10580041;28;20103;-71
2023/10/17 00:49:15;;;;;;;6.32;4.35;;;;;;;7.88;100.00;102078.97;10578641;28;20077;-71
2023/10/17 00:54:18;;;;;;;13.90;4.13;;;;;;;7.93;100.00;102076.66;10577925;28;20309;-70
2023/10/17 00:59:24;;;;;;;13.70;4.85;;;;;;;7.93;100.00;102075.81;10577811;28;20111;-71
2023/10/17 01:04:24;;;;;;;8.35;4.57;;;;;;;7.97;100.00;102074.50;10577966;28;20083;-71
2023/10/17 01:09:25;;;;;;;5.35;4.50;;;;;;;7.96;100.00;102066.56;10579477;28;20289;-71
2023/10/17 01:14:26;;;;;;;5.80;4.43;;;;;;;7.95;100.00;102054.09;10560649;28;20031;-71
2023/10/17 01:19:26;;;;;;;11.57;3.97;;;;;;;7.97;100.00;102047.50;10578640;28;20047;-70
2023/10/17 01:24:26;;;;;;;10.82;5.05;;;;;;;7.91;100.00;102049.00;10587095;28;20032;-70
2023/10/17 01:29:27;;;;;;;6.03;4.30;;;;;;;7.89;100.00;102039.34;10567659;28;20058;-71
2023/10/17 01:34:28;;;;;;;11.45;6.53;;;;;;;7.89;100.00;102042.06;10586217;28;20497;-70
2023/10/17 01:39:29;;;;;;;10.48;5.13;;;;;;;7.97;100.00;102043.97;10589648;28;20040;-70
2023/10/17 01:44:30;;;;;;;6.57;5.25;;;;;;;7.91;100.00;102043.59;10553865;28;20072;-71
2023/10/17 01:49:31;;;;;;;5.10;4.13;;;;;;;7.90;100.00;102032.94;10585230;28;20027;-71
2023/10/17 01:54:32;;;;;;;16.08;6.63;;;;;;;7.90;100.00;102031.09;10583114;28;20378;-69
2023/10/17 01:59:34;;;;;;;4.63;4.03;;;;;;;7.85;100.00;102022.63;10585146;28;20038;-71
2023/10/17 02:04:35;;;;;;;9.23;5.20;;;;;;;7.82;100.00;102014.00;10584292;28;20113;-71
2023/10/17 02:14:42;;;;;;;7.25;5.07;;;;;;;7.83;100.00;102035.41;10583528;28;20118;-70
2023/10/17 02:19:43;;;;;;;7.95;5.88;;;;;;;7.79;100.00;102028.63;10585078;28;20047;-71
2023/10/17 02:24:43;;;;;;;15.02;4.63;;;;;;;7.73;100.00;102031.09;10583420;28;20028;-71
2023/10/17 02:29:46;;;;;;;5.82;4.47;;;;;;;7.66;100.00;102020.91;10582374;28;20031;-71
2023/10/17 02:34:47;;;;;;;5.03;4.63;;;;;;;7.66;100.00;102010.13;10581631;28;20027;-70
2023/10/17 02:39:47;;;;;;;4.13;3.72;;;;;;;7.72;100.00;102021.28;10581674;27;20082;-69
2023/10/17 02:44:47;;;;;;;3.92;3.38;;;;;;;7.72;100.00;102024.81;10581060;28;20077;-69
2023/10/17 02:49:49;;;;;;;6.93;6.28;;;;;;;7.71;100.00;102023.13;10582783;28;20451;-71
2023/10/17 02:54:56;;;;;;;11.18;4.95;;;;;;;7.74;100.00;102022.00;10599103;27;20025;-70
2023/10/17 03:00:07;;;;;;;4.57;4.07;;;;;;;7.71;100.00;102014.19;10599136;27;20028;-70
2023/10/17 03:05:11;;;;;;;5.47;4.97;;;;;;;7.71;100.00;102019.59;10581964;28;20043;-70
2023/10/17 03:10:20;;;;;;;3.33;3.13;;;;;;;7.70;100.00;102021.44;10579854;28;20451;-74
2023/10/17 03:15:29;;;;;;;13.40;5.32;;;;;;;7.67;100.00;102022.59;10579810;28;20436;-73
2023/10/17 03:20:41;;;;;;;5.03;4.53;;;;;;;7.65;100.00;102027.28;10562721;28;20027;-73
2023/10/17 03:25:46;;;;;;;7.65;4.10;;;;;;;7.66;100.00;102025.44;10579667;28;20114;-73
2023/10/17 03:30:55;;;;;;;6.95;4.40;;;;;;;7.64;100.00;102017.50;10579009;28;20024;-73
2023/10/17 03:46:35;;;;;;;5.95;4.68;;;;;;;7.59;100.00;102021.63;10477712;28;20117;-73
2023/10/17 03:51:54;;;;;;;11.43;3.17;;;;;;;7.61;100.00;102033.97;10564311;28;20038;-73
2023/10/17 03:57:02;;;;;;;4.28;3.65;;;;;;;7.61;100.00;102030.44;10580902;27;20138;-74
2023/10/17 04:02:03;;;;;;;7.97;3.50;;;;;;;7.63;100.00;102044.63;10579016;28;20044;-73
2023/10/17 04:07:06;;;;;;;4.85;3.20;;;;;;;7.56;100.00;102036.28;10579134;28;20028;-73
2023/10/17 04:12:20;;;;;;;4.28;3.78;;;;;;;7.58;100.00;102034.28;10577908;28;20121;-73
2023/10/17 04:17:24;;;;;;;4.30;3.83;;;;;;;7.54;100.00;102030.19;10578404;28;20099;-73
2023/10/17 04:22:29;;;;;;;7.25;3.80;;;;;;;7.56;100.00;102032.72;10579235;28;20122;-73
2023/10/17 04:27:32;;;;;;;3.58;3.38;;;;;;;7.57;100.00;102029.88;10578384;28;20022;-73
2023/10/17 04:32:38;;;;;;;3.22;2.88;;;;;;;7.53;100.00;102028.50;10576937;28;20028;-73
2023/10/17 04:37:44;;;;;;;9.63;3.42;;;;;;;7.55;100.00;102031.88;10577232;28;20043;-73
2023/10/17 04:48:11;;;;;;;5.50;4.00;;;;;;;7.50;100.00;102015.31;10577641;28;20111;-73
2023/10/17 04:53:21;;;;;;;5.88;4.07;;;;;;;7.52;100.00;102021.38;10578150;28;20342;-73
2023/10/17 04:58:31;;;;;;;3.45;3.17;;;;;;;7.50;100.00;102027.94;10585648;28;20027;-72
2023/10/17 05:03:45;;;;;;;6.32;3.80;;;;;;;7.41;100.00;102021.59;10585648;28;20027;-73
2023/10/17 05:09:00;;;;;;;11.60;4.15;;;;;;;7.37;100.00;102009.41;10586810;28;20027;-74
2023/10/17 06:18:07;;;;;;;5.93;4.78;;;;;;;6.83;100.00;101990.38;10582591;28;20035;-74
2023/10/17 06:23:23;;;;;;;8.50;5.03;;;;;;;6.75;100.00;101990.22;10567596;28;20176;-75
2023/10/17 06:33:24;;;;;;;18.88;4.97;;;;;;;6.73;100.00;102003.84;10586594;28;20118;-75
2023/10/17 06:38:28;;;;;;;7.13;4.95;;;;;;;6.68;100.00;102007.97;10569814;28;20057;-75
2023/10/17 06:43:29;;;;;;;14.73;5.72;;;;;;;6.65;100.00;102016.31;10550291;28;20027;-74
2023/10/17 06:48:32;;;;;;;4.78;3.97;;;;;;;6.55;100.00;102021.72;10581746;28;20043;-74
2023/10/17 06:53:34;;;;;;;5.80;4.68;;;;;;;6.56;100.00;102014.50;10580474;28;20028;-74
2023/10/17 06:58:34;;;;;;;7.70;6.47;;;;;;;6.85;100.00;102006.34;10583311;28;20019;-73
2023/10/17 07:03:35;;;;;;;16.70;5.60;;;;;;;7.02;100.00;102013.69;10579632;28;20027;-73
2023/10/17 07:08:40;;;;;;;11.98;5.20;;;;;;;7.82;100.00;102008.63;10581288;28;20024;-72
2023/10/17 07:24:23;;;;;;;3.97;3.63;;;;;;;10.25;100.00;102009.34;10580779;28;20146;-73
2023/10/17 07:29:24;;;;;;;3.15;2.85;;;;;;;10.74;100.00;102008.50;10579333;28;20066;-73
2023/10/17 07:34:29;;;;;;;4.53;3.20;;;;;;;11.09;100.00;102005.38;10578016;28;20036;-74
2023/10/17 07:39:36;;;;;;;4.33;2.73;;;;;;;11.39;100.00;101990.19;10577607;28;20146;-72
2023/10/17 07:44:41;;;;;;;4.00;2.40;;;;;;;11.71;100.00;101999.19;10579402;28;20170;-73
2023/10/17 07:49:41;;;;;;;6.18;3.05;;;;;;;12.17;100.00;101987.56;10577919;28;20027;-73
2023/10/17 08:00:01;;;;;;;5.78;3.20;;;;;;;12.60;100.00;101987.84;10578077;28;20122;-74
2023/10/17 08:05:16;;;;;;;5.60;4.43;;;;;;;12.92;100.00;101997.56;10579658;28;20032;-72
2023/10/17 08:10:35;;;;;;;6.25;5.20;;;;;;;12.86;100.00;101985.56;10578504;28;20036;-73
2023/10/17 08:15:46;;;;;;;9.85;4.78;;;;;;;13.01;100.00;101986.41;10577842;28;20062;-72
2023/10/17 08:26:10;;;;;;;8.05;5.25;;;;;;;13.43;100.00;101987.66;10590120;28;20082;-76
2023/10/17 08:31:20;;;;;;;7.82;5.30;;;;;;;13.28;100.00;101989.53;10604665;27;20035;-75
2023/10/17 08:36:23;;;;;;;8.38;6.28;;;;;;;13.37;100.00;101993.00;10587625;28;20447;-75
2023/10/17 08:41:24;;;;;;;19.38;6.97;;;;;;;12.76;100.00;101998.56;10587025;28;20039;-74
2023/10/17 08:46:25;;;;;;;12.88;6.88;;;;;;;12.95;100.00;102002.63;10587608;27;20120;-74
2023/10/17 08:51:26;;;;;;;9.93;6.60;;;;;;;13.71;100.00;102009.53;10586455;28;20042;-74
2023/10/17 08:56:28;;;;;;;7.00;5.72;;;;;;;14.25;100.00;101997.34;10568316;28;20394;-74
2023/10/17 09:01:29;;;;;;;7.20;6.55;;;;;;;14.48;100.00;101991.69;10583666;28;20031;-74
2023/10/17 09:06:37;;;;;;;8.45;4.97;;;;;;;14.80;100.00;102005.81;10585668;28;20427;-75
2023/10/17 09:12:01;;;;;;;8.18;6.30;;;;;;;14.74;100.00;102003.88;10585910;28;20480;-75
2023/10/17 09:17:16;;;;;;;5.32;4.85;;;;;;;14.75;100.00;101989.22;10586287;28;20029;-72
2023/10/17 09:22:40;;;;;;;9.60;5.82;;;;;;;14.58;100.00;101988.66;10584121;28;20402;-73
2023/10/17 09:27:40;;;;;;;6.38;5.78;;;;;;;14.52;100.00;101993.03;10589401;28;20512;-74
2023/10/17 09:32:41;;;;;;;11.63;6.38;;;;;;;14.54;100.00;101987.38;10584170;28;20069;-74
2023/10/17 09:37:51;;;;;;;7.25;6.50;;;;;;;14.85;100.00;101978.78;10582392;28;20455;-74
2023/10/17 09:42:53;;;;;;;10.45;6.82;;;;;;;14.88;100.00;101981.13;10520482;27;20051;-74
2023/10/17 09:47:53;;;;;;;12.23;6.35;;;;;;;14.81;100.00;101991.16;10581911;28;20043;-74
2023/10/17 09:52:54;;;;;;;7.80;5.47;;;;;;;14.64;100.00;101982.41;10582121;28;20047;-74
2023/10/17 09:58:02;;;;;;;10.45;7.18;;;;;;;14.68;100.00;101971.94;10583801;28;20404;-72
2023/10/17 10:03:03;;;;;;;10.70;6.35;;;;;;;14.81;100.00;101977.50;10581963;28;20488;-74
2023/10/17 10:08:25;;;;;;;7.05;6.03;;;;;;;14.74;100.00;101965.69;10564742;28;20044;-73
2023/10/17 10:13:26;;;;;;;6.93;4.65;;;;;;;14.25;100.00;101958.38;10581576;28;20092;-73
2023/10/17 10:18:47;;;;;;;7.07;4.38;;;;;;;14.38;100.00;101966.66;10581525;28;20040;-73
2023/10/17 10:23:47;;;;;;;3.92;3.63;;;;;;;14.71;100.00;101966.97;10567045;28;20405;-72
2023/10/17 10:28:49;;;;;;;5.75;4.88;;;;;;;15.26;100.00;101956.16;10581248;28;20160;-72
2023/10/17 10:33:49;;;;;;;8.90;4.63;;;;;;;15.41;100.00;101953.25;10583266;27;20031;-73
2023/10/17 10:38:51;;;;;;;4.85;3.75;;;;;;;15.46;100.00;101953.50;10582691;28;20051;-73
2023/10/17 10:43:58;;;;;;;7.78;4.72;;;;;;;15.42;100.00;101952.25;10581639;28;20397;-74
2023/10/17 10:48:59;;;;;;;4.95;3.95;;;;;;;15.40;99.06;101935.22;10581046;28;20328;-74
2023/10/17 10:53:59;;;;;;;5.22;3.55;;;;;;;15.58;100.00;101927.31;10579488;28;20123;-74
2023/10/17 10:59:02;;;;;;;9.77;4.32;;;;;;;15.95;99.40;101934.16;10580845;28;20447;-74
2023/10/17 11:04:02;;;;;;;4.53;4.22;;;;;;;15.83;94.56;101930.34;10580736;28;20027;-74
2023/10/17 11:09:07;;;;;;;6.50;2.95;;;;;;;15.71;100.00;101919.16;10581393;28;20044;-73
2023/10/17 11:14:07;;;;;;;3.63;3.20;;;;;;;15.80;95.73;101912.47;10578936;28;20067;-74
2023/10/17 11:19:19;;;;;;;2.85;2.30;;;;;;;15.89;93.34;101898.59;10561979;28;20493;-74
2023/10/17 11:24:20;;;;;;;3.33;3.00;;;;;;;15.80;89.98;101887.91;10579941;28;20050;-74
2023/10/17 11:29:25;;;;;;;8.85;3.72;;;;;;;15.67;82.52;101887.88;10579581;28;20036;-74
2023/10/17 11:34:32;;;;;;;2.23;2.13;;;;;;;15.60;80.52;101884.22;10579197;28;20051;-74
2023/10/17 11:39:39;;;;;;;;;;;;;;;15.65;84.75;101876.28;10580109;28;20437;-74
2023/10/17 11:44:42;;;;;;;3.80;3.45;;;;;;;15.30;82.69;101870.09;10579283;28;19916;-74
2023/10/17 11:49:43;;;;;;;4.13;3.10;;;;;;;15.10;78.52;101876.34;10580370;28;20050;-74
2023/10/17 11:55:11;;;;;;;5.63;3.05;;;;;;;14.72;86.14;101866.91;10595244;27;20122;-74
2023/10/17 12:05:18;;;;;;;4.63;2.60;;;;;;;15.25;81.92;101845.31;10579341;28;20398;-74
2023/10/17 12:10:19;;;;;;;3.75;2.58;;;;;;;15.34;79.58;101847.63;10594470;27;20039;-74
2023/10/17 12:15:23;;;;;;;2.65;2.53;;;;;;;15.26;79.65;101814.25;10579444;28;20051;-74
2023/10/17 12:20:26;;;;;;;2.72;2.47;;;;;;;15.13;82.52;101812.34;10578052;28;20075;-74
2023/10/17 12:25:27;;;;;;;3.00;2.70;;;;;;;15.07;72.94;101819.44;10593804;28;20036;-74
2023/10/17 12:30:28;;;;;;;2.85;2.65;;;;;;;14.97;78.90;101786.28;10576720;28;20027;-74
2023/10/17 12:35:28;;;;;;;4.10;3.00;;;;;;;15.50;82.23;101794.53;10577868;28;20119;-74
2023/10/17 12:40:30;;;;;;;7.05;3.60;;;;;;;14.95;77.26;101793.81;10577871;28;20538;-74
2023/10/17 12:45:30;;;;;;;3.03;2.50;;;;;;;14.38;84.01;101789.53;10577444;28;20073;-73
2023/10/17 12:50:33;;;;;;;6.57;2.80;;;;;;;14.61;87.76;101776.50;10577757;28;20119;-74
2023/10/17 12:55:35;;;;;;;3.30;2.75;;;;;;;14.57;90.36;101767.00;10577392;28;20386;-74
2023/10/17 13:00:39;;;;;;;2.83;2.60;;;;;;;14.53;85.22;101760.28;10575684;28;20031;-73
2023/10/17 13:05:39;;;;;;;6.72;2.78;;;;;;;14.73;77.35;101762.25;10577053;28;20027;-74
2023/10/17 13:10:40;;;;;;;2.40;2.20;;;;;;;14.74;78.24;101748.44;10577253;28;20059;-74
2023/10/17 13:15:43;;;;;;;3.65;2.50;;;;;;;14.80;78.58;101746.75;10578567;28;20119;-73
2023/10/17 13:20:48;;;;;;;4.53;3.17;;;;;;;14.23;79.10;101728.88;10583763;28;20448;-74
2023/10/17 13:25:49;;;;;;;3.03;2.83;;;;;;;13.86;89.66;101733.69;10583505;28;20039;-73
2023/10/17 13:30:49;;;;;;;6.88;3.72;;;;;;;13.98;84.20;101723.09;10584427;28;20036;-74
2023/10/17 13:35:50;;;;;;;4.07;3.08;;;;;;;13.97;80.01;101730.41;10601642;27;20139;-73
2023/10/17 13:40:50;;;;;;;7.35;3.38;;;;;;;14.02;88.60;101716.19;10583260;28;20035;-74
2023/10/17 13:45:50;;;;;;;3.22;2.58;;;;;;;14.09;85.45;101717.91;10584168;28;20093;-74
2023/10/17 13:50:51;;;;;;;3.03;2.85;;;;;;;14.45;84.50;101718.72;10584083;28;20028;-74
2023/10/17 13:55:51;;;;;;;4.10;2.47;;;;;;;14.64;82.60;101704.34;10583140;28;20475;-74
2023/10/17 14:00:54;;;;;;;2.67;2.47;;;;;;;14.49;86.15;101718.13;10583908;28;20077;-73
2023/10/17 14:05:54;;;;;;;5.28;2.97;;;;;;;14.01;91.92;101712.63;10583106;27;20036;-74
2023/10/17 14:10:55;;;;;;;4.38;3.60;;;;;;;13.72;86.65;101698.22;10584171;28;20032;-73
2023/10/17 14:15:55;;;;;;;7.22;3.53;;;;;;;13.40;92.38;101707.81;10583590;28;20484;-74
2023/10/17 14:21:04;;;;;;;3.05;2.85;;;;;;;13.35;89.19;101699.38;10582848;28;20512;-73
2023/10/17 14:26:09;;;;;;;7.00;3.88;;;;;;;13.16;91.46;101695.41;10583042;27;20028;-74
2023/10/17 14:31:12;;;;;;;3.25;2.97;;;;;;;13.09;95.07;101685.53;10584239;28;20081;-73
2023/10/17 14:36:13;;;;;;;2.85;2.65;;;;;;;13.09;97.02;101677.38;10582103;28;20056;-74
2023/10/17 14:41:13;;;;;;;4.22;3.92;;;;;;;12.74;96.60;101669.91;10582876;28;20042;-73
2023/10/17 14:46:15;;;;;;;5.80;3.83;;;;;;;12.86;98.48;101650.34;10580010;28;20028;-73
2023/10/17 14:51:16;;;;;;;2.53;2.33;;;;;;;12.69;100.00;101663.34;10579013;28;20060;-73
2023/10/17 14:56:16;;;;;;;6.60;3.10;;;;;;;12.31;100.00;101658.13;10580721;28;20182;-74
2023/10/17 15:01:17;;;;;;;3.05;2.85;;;;;;;12.21;100.00;101653.00;10580185;28;20474;-73
2023/10/17 15:06:18;;;;;;;8.48;3.45;;;;;;;12.07;100.00;101648.44;10580585;28;20084;-73
2023/10/17 15:11:20;;;;;;;5.85;2.88;;;;;;;11.85;100.00;101653.78;10579894;28;20043;-73
2023/10/17 15:16:20;;;;;;;6.50;3.80;;;;;;;11.72;100.00;101634.56;10581181;27;20031;-73
2023/10/17 15:21:21;;;;;;;7.10;3.28;;;;;;;11.55;100.00;101631.19;10581613;28;20047;-73
2023/10/17 15:26:23;;;;;;;5.15;3.47;;;;;;;11.47;100.00;101627.72;10579339;28;20106;-73
2023/10/17 15:31:27;;;;;;;5.32;3.03;;;;;;;11.44;100.00;101625.38;10580098;28;20032;-73
2023/10/17 15:36:29;;;;;;;3.92;3.33;;;;;;;11.41;100.00;101632.84;10579034;28;20059;-73
2023/10/17 15:41:30;;;;;;;3.08;2.88;;;;;;;11.35;100.00;101651.72;10577720;28;20031;-73
2023/10/17 15:46:31;;;;;;;2.97;2.83;;;;;;;11.23;100.00;101637.81;10577495;28;20448;-73
2023/10/17 15:51:31;;;;;;;3.90;3.38;;;;;;;11.22;100.00;101633.38;10579601;28;20039;-72
2023/10/17 15:56:31;;;;;;;6.53;3.67;;;;;;;11.16;100.00;101626.81;10578674;28;20031;-73
2023/10/17 16:01:32;;;;;;;2.83;2.63;;;;;;;11.07;100.00;101630.66;10579232;28;20028;-73
2023/10/17 16:06:32;;;;;;;5.45;3.65;;;;;;;11.01;100.00;101631.38;10578752;28;20040;-72
2023/10/17 16:11:33;;;;;;;7.53;2.70;;;;;;;10.94;100.00;101623.16;10578884;28;20136;-73
2023/10/17 16:16:34;;;;;;;11.38;3.67;;;;;;;10.82;100.00;101619.19;10579396;28;20082;-72
2023/10/17 16:21:35;;;;;;;2.92;2.63;;;;;;;10.74;100.00;101627.34;10577967;28;20455;-73
2023/10/17 16:26:35;;;;;;;3.20;2.92;;;;;;;10.65;100.00;101645.53;10577531;28;20091;-73
2023/10/17 16:31:36;;;;;;;7.38;4.53;;;;;;;10.52;100.00;101636.31;10593339;28;20167;-73
2023/10/17 16:36:36;;;;;;;3.33;2.63;;;;;;;10.44;100.00;101640.75;10577824;28;20052;-73
2023/10/17 16:41:37;;;;;;;3.63;3.33;;;;;;;10.36;100.00;101639.97;10577861;28;20027;-73
2023/10/17 16:46:41;;;;;;;3.22;3.03;;;;;;;10.15;100.00;101638.69;10577277;28;20049;-73
2023/10/17 16:51:41;;;;;;;3.50;3.17;;;;;;;10.11;100.00;101641.91;10580500;28;20031;-72
2023/10/17 16:56:42;;;;;;;7.63;3.80;;;;;;;10.06;100.00;101657.84;10585236;28;20035;-71
2023/10/17 17:01:42;;;;;;;4.28;2.92;;;;;;;9.90;100.00;101667.72;10586660;28;20055;-73
2023/10/17 17:06:44;;;;;;;3.63;3.33;;;;;;;9.81;100.00;101663.34;10585119;28;20051;-73
2023/10/17 17:11:44;;;;;;;11.18;4.28;;;;;;;9.69;100.00;101660.16;10583341;28;20454;-73
2023/10/17 17:16:48;;;;;;;10.43;4.38;;;;;;;9.62;100.00;101651.06;10585438;28;20046;-72
2023/10/17 17:21:50;;;;;;;6.47;3.42;;;;;;;9.46;100.00;101653.78;10583550;28;20486;-72
2023/10/17 17:26:54;;;;;;;7.95;5.40;;;;;;;9.43;100.00;101662.25;10584660;28;20034;-73
2023/10/17 17:31:55;;;;;;;7.57;3.45;;;;;;;9.36;100.00;101674.78;10549809;28;20034;-72
2023/10/17 17:36:56;;;;;;;4.30;3.67;;;;;;;9.35;100.00;101684.75;10586620;28;20052;-73
2023/10/17 17:41:56;;;;;;;7.07;4.13;;;;;;;9.26;100.00;101673.09;10583510;28;20110;-73
2023/10/17 17:46:57;;;;;;;3.70;3.40;;;;;;;9.15;100.00;101657.19;10582512;28;20040;-73
2023/10/17 17:51:57;;;;;;;6.38;4.30;;;;;;;8.99;100.00;101647.25;10582597;28;20046;-72
2023/10/17 17:56:58;;;;;;;5.38;3.80;;;;;;;9.01;100.00;101644.38;10584437;27;20043;-72
2023/10/17 18:01:59;;;;;;;3.92;3.63;;;;;;;8.94;100.00;101633.41;10581527;28;20417;-73
2023/10/17 18:06:59;;;;;;;5.95;3.88;;;;;;;8.79;100.00;101629.69;10583563;28;20127;-72
2023/10/17 18:12:00;;;;;;;3.30;3.00;;;;;;;8.79;100.00;101627.00;10580986;28;20470;-73
2023/10/17 18:17:03;;;;;;;5.32;3.55;;;;;;;8.70;100.00;101622.59;10565163;28;20115;-73
2023/10/17 18:22:04;;;;;;;5.70;3.47;;;;;;;8.63;100.00;101625.13;10583008;28;20059;-72
2023/10/17 18:27:04;;;;;;;3.33;2.90;;;;;;;8.54;100.00;101610.75;10583339;28;20454;-72
2023/10/17 18:32:04;;;;;;;3.85;3.10;;;;;;;8.50;100.00;101606.72;10580501;28;20134;-72
2023/10/17 18:37:05;;;;;;;6.47;4.38;;;;;;;8.53;100.00;101603.69;10581972;28;20132;-72
2023/10/17 18:42:06;;;;;;;6.68;3.40;;;;;;;8.50;100.00;101604.00;10581791;27;20063;-73
2023/10/17 18:47:06;;;;;;;7.53;4.13;;;;;;;8.50;100.00;101614.81;10581581;28;20050;-73
2023/10/17 18:52:07;;;;;;;7.07;5.60;;;;;;;8.45;100.00;101602.81;10580163;28;20062;-73
2023/10/17 18:57:07;;;;;;;6.25;3.47;;;;;;;8.40;100.00;101607.88;10580930;28;20543;-72
2023/10/17 19:02:07;;;;;;;5.28;3.92;;;;;;;8.38;100.00;101594.53;10597098;27;20032;-72
2023/10/17 19:07:09;;;;;;;4.22;3.63;;;;;;;8.36;100.00;101601.94;10581164;27;20067;-72
2023/10/17 19:12:10;;;;;;;5.85;3.97;;;;;;;8.35;100.00;101592.13;10581668;28;20031;-73
2023/10/17 19:17:12;;;;;;;5.10;3.83;;;;;;;8.26;100.00;101577.78;10578794;28;20027;-72
2023/10/17 19:22:12;;;;;;;6.85;4.97;;;;;;;8.25;100.00;101569.88;10581173;28;20103;-72
2023/10/17 19:27:12;;;;;;;6.97;4.72;;;;;;;8.18;100.00;101556.19;10580089;28;20066;-72
2023/10/17 19:32:14;;;;;;;9.20;5.43;;;;;;;8.15;100.00;101561.91;10578164;28;20066;-73
2023/10/17 19:37:15;;;;;;;6.40;4.80;;;;;;;8.06;100.00;101557.50;10578012;28;20156;-72
2023/10/17 19:42:16;;;;;;;7.82;5.60;;;;;;;8.03;100.00;101561.38;10579182;28;20192;-73
2023/10/17 19:47:16;;;;;;;7.72;5.75;;;;;;;7.97;100.00;101559.34;10581194;28;20035;-73
2023/10/17 19:52:16;;;;;;;8.65;5.72;;;;;;;7.97;100.00;101562.03;10578347;28;20474;-72
2023/10/17 19:57:17;;;;;;;8.48;6.22;;;;;;;7.94;100.00;101554.25;10577768;28;20135;-72
2023/10/17 20:02:17;;;;;;;7.13;6.43;;;;;;;7.83;100.00;101557.28;10578123;28;20036;-72
2023/10/17 20:07:21;;;;;;;10.43;6.78;;;;;;;7.79;100.00;101551.38;10578315;28;20100;-72
2023/10/17 20:12:21;;;;;;;9.43;5.70;;;;;;;7.73;100.00;101543.09;10595960;27;20051;-73
2023/10/17 20:17:21;;;;;;;14.63;7.50;;;;;;;7.72;100.00;101541.38;10577882;28;20039;-72
2023/10/17 20:22:22;;;;;;;7.22;6.20;;;;;;;7.54;100.00;101531.56;10578788;28;20114;-73
2023/10/17 20:27:22;;;;;;;9.00;7.28;;;;;;;7.53;100.00;101523.63;10584980;28;20035;-72
2023/10/17 20:32:23;;;;;;;9.60;8.68;;;;;;;7.51;100.00;101521.09;10586751;28;20458;-72
2023/10/17 20:37:23;;;;;;;11.80;6.93;;;;;;;7.49;100.00;101509.63;10569348;28;20164;-72
2023/10/17 20:42:24;;;;;;;9.85;8.00;;;;;;;7.42;100.00;101512.13;10586151;28;20076;-72
2023/10/17 20:47:24;;;;;;;12.90;8.15;;;;;;;7.36;100.00;101507.38;10603258;27;20485;-72
2023/10/17 20:52:25;;;;;;;18.52;8.82;;;;;;;7.33;100.00;101494.25;10568499;28;20031;-71
2023/10/17 20:57:25;;;;;;;8.88;7.43;;;;;;;7.34;100.00;101493.25;10586715;28;20130;-72
2023/10/17 21:02:26;;;;;;;11.25;8.82;;;;;;;7.26;100.00;101489.66;10585435;28;20038;-72
2023/10/17 21:07:27;;;;;;;13.32;9.40;;;;;;;7.25;100.00;101478.06;10586942;28;20072;-72
2023/10/17 21:12:32;;;;;;;9.57;6.55;;;;;;;7.18;100.00;101477.88;10584015;28;20106;-72
2023/10/17 21:17:32;;;;;;;13.00;8.90;;;;;;;7.14;100.00;101476.47;10584334;28;20158;-72
2023/10/17 21:22:33;;;;;;;12.15;10.10;;;;;;;7.14;100.00;101470.25;10584118;28;20038;-72
2023/10/17 21:27:33;;;;;;;19.77;9.95;;;;;;;7.07;100.00;101463.81;10585422;28;20455;-73
2023/10/17 21:32:34;;;;;;;22.70;9.88;;;;;;;7.04;100.00;101448.81;10585079;28;20149;-73
2023/10/17 21:37:35;;;;;;;12.15;10.95;;;;;;;6.95;100.00;101436.31;10584035;28;20052;-72
2023/10/17 21:42:35;;;;;;;11.88;10.57;;;;;;;6.91;100.00;101449.25;10582822;28;20433;-72
2023/10/17 21:47:38;;;;;;;10.93;9.85;;;;;;;6.85;100.00;101451.75;10584717;28;20039;-72
2023/10/17 21:52:39;;;;;;;12.07;10.45;;;;;;;6.85;100.00;101447.22;10583517;28;20030;-72
2023/10/17 21:57:43;;;;;;;15.00;10.77;;;;;;;6.85;100.00;101435.59;10585684;28;20155;-72
2023/10/17 22:02:44;;;;;;;12.48;10.93;;;;;;;6.75;100.00;101423.09;10583702;28;20044;-72
2023/10/17 22:07:44;;;;;;;13.70;11.38;;;;;;;6.75;100.00;101433.03;10582664;28;20524;-72
2023/10/17 22:12:45;;;;;;;16.90;12.18;;;;;;;6.71;100.00;101421.75;10582556;28;20088;-73
2023/10/17 22:17:46;;;;;;;13.70;11.52;;;;;;;6.69;100.00;101412.97;10565677;28;20027;-72
2023/10/17 22:22:46;;;;;;;14.45;12.20;;;;;;;6.63;100.00;101408.22;10584082;28;20031;-72
2023/10/17 22:27:47;;;;;;;24.33;13.23;;;;;;;6.64;100.00;101409.94;10598898;27;20032;-73
2023/10/17 22:32:47;;;;;;;15.40;10.88;;;;;;;6.57;100.00;101408.03;10583748;28;20352;-72
2023/10/17 22:37:47;;;;;;;11.63;10.30;;;;;;;6.52;100.00;101397.75;10582581;28;20047;-73
2023/10/17 22:42:51;;;;;;;12.75;10.70;;;;;;;6.52;100.00;101389.66;10598918;27;20134;-72
2023/10/17 22:47:52;;;;;;;14.38;12.88;;;;;;;6.48;100.00;101374.84;10582625;28;20032;-73
2023/10/17 22:52:52;;;;;;;22.95;14.18;;;;;;;6.42;100.00;101367.41;10582098;28;20493;-72
2023/10/17 22:57:54;;;;;;;17.90;12.93;;;;;;;6.41;100.00;101371.09;10580877;28;20039;-73
2023/10/17 23:02:54;;;;;;;15.98;12.45;;;;;;;6.42;100.00;101356.66;10581307;28;20035;-72
2023/10/17 23:07:55;;;;;;;14.43;12.93;;;;;;;6.40;100.00;101358.66;10581058;28;20057;-73
2023/10/17 23:12:56;;;;;;;16.85;13.52;;;;;;;6.37;100.00;101356.28;10581577;28;20352;-73
2023/10/17 23:17:57;;;;;;;14.25;11.85;;;;;;;6.32;100.00;101356.78;10580457;28;20046;-73
2023/10/17 23:22:57;;;;;;;20.00;12.43;;;;;;;6.27;100.00;101341.09;10563541;28;20091;-73
2023/10/17 23:27:58;;;;;;;25.58;14.07;;;;;;;6.24;100.00;101322.59;10596217;27;20044;-72
2023/10/17 23:32:59;;;;;;;13.93;11.65;;;;;;;6.24;100.00;101319.91;10580229;28;20024;-72
2023/10/17 23:37:59;;;;;;;19.23;12.32;;;;;;;6.29;100.00;101309.50;10579246;28;20109;-73
2023/10/17 23:43:00;;;;;;;21.50;13.63;;;;;;;6.29;100.00;101306.81;10579842;28;20144;-73
2023/10/17 23:48:07;;;;;;;11.88;10.15;;;;;;;6.27;100.00;101305.28;10561178;28;20074;-73
2023/10/17 23:53:09;;;;;;;19.73;14.00;;;;;;;6.26;100.00;101293.69;10577740;28;20028;-72
2023/10/17 23:58:10;;;;;;;20.48;13.35;;;;;;;6.35;100.00;101291.03;10560745;28;20028;-72
